Time;durP1;ratioP1;P1;durP2;ratioP2;P2;SDS_P1;SDS_P2;PMS_P1;PMS_P2;Temp;Humidity;BMP_temperature;BMP_pressure;BME280_temperature;BME280_humidity;BME280_pressure;Samples;Min_cycle;Max_cycle;Signal;HPM_P1;HPM_P2
2022/02/07 00:03:48;;;;;;;13.30;9.70;;;;;;;1.48;55.44;100127.42;117385;1185;21861;-56
2022/02/07 00:06:17;;;;;;;13.60;9.50;;;;;;;1.47;55.52;100128.96;117329;1182;21861;-56
2022/02/07 00:08:46;;;;;;;14.00;9.30;;;;;;;1.47;55.34;100127.91;117387;1183;22922;-57
2022/02/07 00:11:14;;;;;;;14.40;9.90;;;;;;;1.47;55.52;100123.09;117444;1183;23547;-57
2022/02/07 00:13:43;;;;;;;17.40;10.00;;;;;;;1.49;55.36;100123.12;117390;1182;21852;-56
2022/02/07 00:16:32;;;;;;;15.90;9.80;;;;;;;1.51;55.49;100110.35;117379;1186;21851;-55
2022/02/07 00:19:00;;;;;;;15.10;10.00;;;;;;;1.51;55.75;100092.20;117421;1185;23560;-56
2022/02/07 00:21:30;;;;;;;15.20;9.80;;;;;;;1.52;55.54;100078.91;117417;1183;21900;-53
2022/02/07 00:23:58;;;;;;;13.80;9.40;;;;;;;1.54;55.59;100063.89;117382;1185;24157;-54
2022/02/07 00:26:27;;;;;;;15.40;11.00;;;;;;;1.57;55.52;100068.08;117421;1182;21845;-57
2022/02/07 00:28:55;;;;;;;16.70;10.20;;;;;;;1.60;55.48;100074.02;117333;1183;21854;-55
2022/02/07 00:31:23;;;;;;;17.40;11.00;;;;;;;1.63;55.72;100068.55;117317;1184;23429;-57
2022/02/07 00:33:53;;;;;;;16.20;10.30;;;;;;;1.66;55.65;100061.86;117395;1185;21861;-55
2022/02/07 00:36:21;;;;;;;15.80;10.00;;;;;;;1.68;55.77;100060.70;117385;1183;21861;-55
2022/02/07 00:38:54;;;;;;;17.40;10.70;;;;;;;1.71;55.60;100064.40;117410;1182;21861;-55
2022/02/07 00:41:31;;;;;;;16.10;10.20;;;;;;;1.74;55.87;100059.42;117330;1183;21858;-57
2022/02/07 00:44:09;;;;;;;17.10;11.30;;;;;;;1.78;55.92;100062.59;117345;1185;23029;-55
2022/02/07 00:46:47;;;;;;;15.40;9.60;;;;;;;1.81;55.73;100057.30;117348;1183;21859;-59
2022/02/07 00:49:15;;;;;;;15.90;9.90;;;;;;;1.85;55.87;100043.52;117378;1183;21855;-56
2022/02/07 00:51:43;;;;;;;16.40;9.70;;;;;;;1.86;55.99;100035.05;117356;1186;21857;-56
2022/02/07 00:54:11;;;;;;;15.60;10.70;;;;;;;1.86;55.96;100028.48;117407;1183;21855;-57
2022/02/07 00:56:40;;;;;;;16.40;11.10;;;;;;;1.86;55.91;100028.67;117404;1185;21859;-55
2022/02/07 00:59:09;;;;;;;17.90;11.40;;;;;;;1.86;55.61;100021.75;117395;1182;21854;-54
2022/02/07 01:01:37;;;;;;;19.40;11.20;;;;;;;1.86;55.68;100019.15;117438;1185;23525;-54
2022/02/07 01:04:06;;;;;;;18.40;10.80;;;;;;;1.86;55.86;100016.05;117408;1183;21889;-57
2022/02/07 01:06:36;;;;;;;17.20;11.50;;;;;;;1.87;55.67;100013.45;117371;1183;21854;-54
2022/02/07 01:09:36;;;;;;;15.80;10.70;;;;;;;1.86;55.72;100010.50;117338;1182;21848;-55
2022/02/07 01:15:06;;;;;;;16.60;11.60;;;;;;;1.82;55.75;100003.85;117136;1186;21859;-58
2022/02/07 01:55:43;;;;;;;16.10;9.10;;;;;;;2.15;56.27;99913.70;117281;1185;21855;-57
2022/02/07 01:58:12;;;;;;;14.90;9.20;;;;;;;2.19;55.86;99918.43;117328;1185;24245;-57
2022/02/07 02:00:41;;;;;;;15.70;9.60;;;;;;;2.21;56.03;99919.66;117367;1182;21851;-55
2022/02/07 02:03:10;;;;;;;15.80;9.90;;;;;;;2.21;55.91;99919.31;117428;1183;22649;-55
2022/02/07 02:05:38;;;;;;;13.50;9.00;;;;;;;2.21;55.83;99911.01;117420;1186;22912;-55
2022/02/07 02:08:10;;;;;;;14.60;9.20;;;;;;;2.21;55.96;99903.91;117438;1185;21861;-55
2022/02/07 02:10:42;;;;;;;13.00;7.80;;;;;;;2.22;56.08;99893.19;117371;1182;21864;-57
2022/02/07 02:13:15;;;;;;;12.30;7.30;;;;;;;2.22;56.08;99873.28;117421;1185;21876;-55
2022/02/07 02:22:19;;;;;;;18.20;9.10;;;;;;;2.23;56.02;99846.63;116944;1186;23537;-57
2022/02/07 02:33:23;;;;;;;14.20;7.90;;;;;;;2.30;56.36;99822.31;117385;1183;21895;-55
2022/02/07 02:36:10;;;;;;;13.20;7.50;;;;;;;2.38;56.11;99820.15;117308;1185;21855;-55
2022/02/07 02:38:20;;;;;;;11.10;7.10;;;;;;;2.45;56.14;99812.98;117321;1183;23459;-54
2022/02/07 02:46:26;;;;;;;12.10;6.90;;;;;;;2.61;56.24;99811.25;117369;1185;21867;-56
2022/02/07 02:49:00;;;;;;;13.30;7.30;;;;;;;2.62;56.05;99809.87;117338;1185;21881;-55
2022/02/07 02:51:29;;;;;;;12.70;7.30;;;;;;;2.60;56.01;99814.36;117337;1183;23557;-55
2022/02/07 02:53:57;;;;;;;11.30;7.10;;;;;;;2.60;56.21;99809.50;117378;1182;21875;-56
2022/02/07 02:56:25;;;;;;;12.80;7.50;;;;;;;2.58;56.15;99799.44;117384;1185;21861;-57
2022/02/07 02:58:53;;;;;;;13.70;6.90;;;;;;;2.59;56.19;99805.34;117402;1180;23432;-56
2022/02/07 03:01:23;;;;;;;11.60;7.40;;;;;;;2.60;56.08;99809.15;117357;1185;21858;-55
2022/02/07 03:03:51;;;;;;;12.60;6.70;;;;;;;2.61;56.07;99797.57;117405;1182;21905;-57
2022/02/07 03:06:20;;;;;;;10.20;7.10;;;;;;;2.62;56.19;99798.44;117431;1182;21851;-56
2022/02/07 03:08:48;;;;;;;12.10;7.40;;;;;;;2.61;56.14;99782.30;117381;1184;22715;-56
2022/02/07 03:11:20;;;;;;;10.00;6.60;;;;;;;2.60;56.07;99787.15;117383;1183;21864;-56
2022/02/07 03:13:53;;;;;;;11.40;7.70;;;;;;;2.59;56.07;99786.10;117316;1183;24225;-55
2022/02/07 03:16:38;;;;;;;20.60;9.90;;;;;;;2.58;56.07;99787.82;117385;1183;21907;-55
2022/02/07 03:19:10;;;;;;;19.40;10.00;;;;;;;2.57;56.08;99776.56;117359;1176;21851;-56
2022/02/07 03:21:39;;;;;;;14.70;8.00;;;;;;;2.57;56.20;99771.02;117381;1185;22957;-57
2022/02/07 03:24:08;;;;;;;14.90;9.80;;;;;;;2.58;56.28;99762.38;117312;1185;22909;-56
2022/02/07 03:26:44;;;;;;;20.00;11.90;;;;;;;2.61;56.17;99762.40;117369;1182;21858;-55
2022/02/07 03:29:13;;;;;;;11.30;7.70;;;;;;;2.66;56.19;99764.35;117368;1182;23452;-56
2022/02/07 03:31:42;;;;;;;13.50;7.80;;;;;;;2.71;56.29;99765.08;117363;1185;23686;-55
2022/02/07 03:34:09;;;;;;;10.90;7.10;;;;;;;2.75;56.32;99753.86;117316;1182;24117;-57
2022/02/07 03:36:39;;;;;;;12.20;7.30;;;;;;;2.80;56.32;99747.50;117346;1182;21830;-57
2022/02/07 03:39:07;;;;;;;11.90;7.20;;;;;;;2.85;56.28;99761.77;117317;1189;21842;-57
2022/02/07 03:41:38;;;;;;;10.60;7.20;;;;;;;2.90;56.32;99759.37;117413;1185;21855;-57
2022/02/07 03:44:07;;;;;;;11.60;6.60;;;;;;;2.95;56.28;99754.39;117427;1183;21857;-57
2022/02/07 03:46:36;;;;;;;14.10;6.20;;;;;;;2.98;56.26;99741.95;117412;1183;21898;-57
2022/02/07 03:49:04;;;;;;;11.00;6.60;;;;;;;3.00;56.35;99744.20;117434;1182;23545;-57
2022/02/07 03:51:33;;;;;;;10.60;6.70;;;;;;;3.01;56.25;99752.20;117374;1182;23557;-55
2022/02/07 03:54:01;;;;;;;10.60;6.40;;;;;;;3.04;56.48;99744.42;117419;1185;21854;-56
2022/02/07 03:56:29;;;;;;;11.90;6.20;;;;;;;3.08;56.35;99738.04;117343;1185;21854;-56
2022/02/07 03:58:58;;;;;;;14.80;6.90;;;;;;;3.11;56.41;99723.66;117381;1185;21855;-56
2022/02/07 04:01:27;;;;;;;9.80;5.70;;;;;;;3.15;56.55;99722.14;117434;1183;22619;-57
2022/02/07 04:03:55;;;;;;;13.80;6.80;;;;;;;3.17;56.32;99719.02;117394;1185;21854;-56
2022/02/07 04:06:25;;;;;;;9.40;5.90;;;;;;;3.18;56.30;99708.98;117404;1185;21864;-57
2022/02/07 04:08:58;;;;;;;6.30;4.30;;;;;;;3.18;56.33;99702.91;117391;1183;21858;-55
2022/02/07 04:11:33;;;;;;;11.50;6.20;;;;;;;3.16;56.17;99691.45;117411;1183;22626;-56
2022/02/07 04:14:01;;;;;;;10.90;6.30;;;;;;;3.10;56.14;99676.67;117393;1185;21861;-55
2022/02/07 04:16:36;;;;;;;9.90;5.90;;;;;;;3.06;56.33;99668.34;117472;1185;23432;-57
2022/02/07 04:19:17;;;;;;;9.80;5.60;;;;;;;3.04;56.16;99662.42;117407;1186;22317;-57
2022/02/07 04:21:48;;;;;;;9.80;6.10;;;;;;;3.00;56.15;99668.82;117347;1185;23455;-57
2022/02/07 04:24:18;;;;;;;13.00;6.40;;;;;;;2.98;56.28;99668.45;117312;1182;23452;-57
2022/02/07 04:26:46;;;;;;;10.00;5.90;;;;;;;2.99;56.36;99660.66;117352;1186;21851;-57
2022/02/07 04:29:14;;;;;;;12.90;6.20;;;;;;;2.99;56.32;99653.73;117337;1182;21857;-55
2022/02/07 04:31:42;;;;;;;9.20;5.90;;;;;;;3.00;56.31;99649.05;117401;1185;22526;-57
2022/02/07 04:34:10;;;;;;;10.60;5.70;;;;;;;3.00;56.26;99648.20;117452;1182;21877;-57
2022/02/07 04:36:45;;;;;;;13.20;6.40;;;;;;;3.00;56.24;99648.89;117412;1186;21845;-55
2022/02/07 04:39:13;;;;;;;10.70;5.90;;;;;;;2.98;56.27;99647.48;117402;1185;22698;-56
2022/02/07 04:41:42;;;;;;;11.50;6.00;;;;;;;2.97;56.26;99646.95;117318;1185;21873;-57
2022/02/07 04:44:15;;;;;;;9.70;6.00;;;;;;;2.94;56.21;99644.85;117356;1182;23534;-58
2022/02/07 04:49:29;;;;;;;11.50;6.10;;;;;;;2.87;56.20;99637.70;117344;1183;21837;-58
2022/02/07 04:52:25;;;;;;;11.20;6.00;;;;;;;2.84;56.08;99630.59;117365;1185;21988;-55
2022/02/07 04:54:57;;;;;;;11.60;6.40;;;;;;;2.81;56.07;99620.16;117395;1182;21845;-56
2022/02/07 04:57:47;;;;;;;11.90;7.50;;;;;;;2.78;55.92;99609.73;117412;1185;21854;-58
2022/02/07 05:13:38;;;;;;;10.20;5.10;;;;;;;2.87;56.38;99603.73;117361;1182;21863;-56
2022/02/07 05:16:30;;;;;;;10.60;4.90;;;;;;;3.40;56.57;99601.59;117402;1186;21854;-56
2022/02/07 05:19:04;;;;;;;9.00;5.60;;;;;;;3.42;56.31;99608.73;117415;1185;21875;-58
2022/02/07 05:21:32;;;;;;;7.90;4.90;;;;;;;3.40;56.31;99605.41;117456;1186;22911;-56
2022/02/07 05:24:01;;;;;;;9.10;4.60;;;;;;;3.39;56.26;99606.28;117492;1186;23535;-57
2022/02/07 05:26:29;;;;;;;7.90;4.30;;;;;;;3.40;56.31;99596.39;117422;1182;21854;-56
2022/02/07 05:29:01;;;;;;;8.50;4.70;;;;;;;3.41;56.17;99597.79;117448;1186;21854;-56
2022/02/07 05:31:29;;;;;;;10.90;4.60;;;;;;;3.46;56.28;99605.61;117366;1185;23515;-58
2022/02/07 05:33:58;;;;;;;8.60;4.60;;;;;;;3.49;56.36;99610.31;117431;1182;21855;-55
2022/02/07 05:36:26;;;;;;;8.40;4.60;;;;;;;3.53;56.36;99611.54;117406;1185;22645;-56
2022/02/07 05:38:58;;;;;;;9.00;4.40;;;;;;;3.56;56.26;99613.10;117313;1185;21854;-56
2022/02/07 05:41:27;;;;;;;7.50;4.00;;;;;;;3.56;56.24;99618.48;117277;1182;23125;-56
2022/02/07 05:43:55;;;;;;;8.10;4.20;;;;;;;3.60;56.24;99620.92;117453;1185;21860;-57
2022/02/07 05:46:23;;;;;;;7.60;4.40;;;;;;;3.61;56.22;99615.20;117503;1185;21863;-58
2022/02/07 05:48:52;;;;;;;7.00;4.00;;;;;;;3.61;56.15;99602.89;117349;1182;23585;-58
2022/02/07 05:51:20;;;;;;;6.20;3.60;;;;;;;3.62;56.23;99594.91;117325;1183;21851;-55
2022/02/07 05:53:48;;;;;;;7.50;4.40;;;;;;;3.65;56.30;99582.26;117320;1185;21861;-56
2022/02/07 05:56:16;;;;;;;10.00;4.90;;;;;;;3.70;56.26;99568.06;117502;1183;21854;-57
2022/02/07 05:58:45;;;;;;;6.20;3.60;;;;;;;3.75;56.40;99562.67;117330;1182;21857;-58
2022/02/07 06:01:13;;;;;;;8.00;3.90;;;;;;;3.82;56.49;99554.19;117343;1185;21851;-55
2022/02/07 06:03:41;;;;;;;7.00;3.70;;;;;;;3.90;56.34;99550.04;117349;1184;23982;-56
2022/02/07 06:06:10;;;;;;;7.00;3.00;;;;;;;3.99;56.46;99550.74;117311;1176;23477;-56
2022/02/07 06:08:38;;;;;;;8.00;3.90;;;;;;;4.09;56.38;99549.02;117402;1185;23688;-56
2022/02/07 06:11:08;;;;;;;9.00;5.30;;;;;;;4.17;56.27;99549.04;117324;1185;23581;-56
2022/02/07 06:13:37;;;;;;;10.80;5.50;;;;;;;4.24;56.30;99549.02;117357;1183;21860;-58
2022/02/07 06:16:07;;;;;;;10.10;5.00;;;;;;;4.29;56.19;99545.73;117298;1184;22084;-56
2022/02/07 06:18:35;;;;;;;9.70;5.30;;;;;;;4.37;56.33;99538.62;117351;1185;22106;-57
2022/02/07 06:21:06;;;;;;;7.40;3.60;;;;;;;4.45;56.22;99535.29;117306;1183;23464;-56
2022/02/07 06:23:35;;;;;;;6.80;3.50;;;;;;;4.52;56.20;99531.12;117380;1185;21984;-57
2022/02/07 06:26:03;;;;;;;7.60;3.90;;;;;;;4.58;56.27;99525.55;117574;1180;21852;-55
2022/02/07 06:28:31;;;;;;;6.90;3.80;;;;;;;4.64;56.21;99525.20;117421;1181;21854;-57
2022/02/07 06:30:59;;;;;;;8.80;3.90;;;;;;;4.69;56.31;99526.92;117394;1185;21973;-55
2022/02/07 06:33:28;;;;;;;6.10;3.40;;;;;;;4.75;56.25;99531.95;117416;1182;21855;-57
2022/02/07 06:35:58;;;;;;;6.60;3.70;;;;;;;4.81;56.35;99540.64;117474;1182;21897;-57
2022/02/07 06:38:38;;;;;;;6.50;3.80;;;;;;;4.86;56.11;99540.80;117340;1186;21854;-57
2022/02/07 06:41:06;;;;;;;7.90;3.60;;;;;;;4.89;56.12;99538.52;117377;1184;23429;-57
2022/02/07 06:43:35;;;;;;;5.90;2.90;;;;;;;4.92;56.26;99539.39;117440;1180;21855;-56
2022/02/07 06:46:03;;;;;;;5.40;2.90;;;;;;;4.97;56.20;99537.64;117361;1182;22006;-56
2022/02/07 06:48:31;;;;;;;6.60;3.30;;;;;;;5.01;56.08;99531.54;117351;1182;21855;-56
2022/02/07 06:51:00;;;;;;;6.80;3.40;;;;;;;5.05;55.93;99524.05;117316;1185;24282;-56
2022/02/07 06:53:28;;;;;;;8.50;3.70;;;;;;;5.10;56.12;99515.51;117389;1176;21855;-56
2022/02/07 06:55:57;;;;;;;5.30;2.80;;;;;;;5.17;56.07;99513.22;117361;1185;21854;-56
2022/02/07 06:58:27;;;;;;;;;;;;;;;5.25;56.10;99504.50;117389;1182;22909;-56
2022/02/07 07:00:55;;;;;;;4.90;2.90;;;;;;;5.31;55.95;99503.59;117381;1185;23020;-58
2022/02/07 07:03:26;;;;;;;;;;;;;;;5.36;56.14;99499.91;117335;1183;23608;-58
2022/02/07 07:05:54;;;;;;;6.10;2.90;;;;;;;5.41;56.00;99496.24;117415;1180;21901;-57
2022/02/07 07:08:24;;;;;;;6.70;3.00;;;;;;;5.45;56.16;99489.95;117361;1183;21851;-57
2022/02/07 07:10:55;;;;;;;4.40;2.70;;;;;;;5.51;56.25;99489.21;117392;1186;21853;-58
2022/02/07 07:13:35;;;;;;;4.90;2.90;;;;;;;5.60;56.22;99487.42;117403;1182;23575;-56
2022/02/07 07:16:15;;;;;;;;;;;;;;;5.70;56.10;99490.15;117365;1185;21962;-56
2022/02/07 07:18:44;;;;;;;4.60;2.70;;;;;;;5.77;56.03;99495.30;117407;1185;21989;-57
2022/02/07 07:21:12;;;;;;;7.30;2.80;;;;;;;5.84;55.83;99489.52;117383;1182;23466;-57
2022/02/07 07:23:41;;;;;;;6.00;2.90;;;;;;;5.91;55.73;99487.05;117334;1182;21845;-58
2022/02/07 07:26:09;;;;;;;6.10;2.60;;;;;;;5.98;55.86;99485.59;117392;1182;21911;-56
2022/02/07 07:28:39;;;;;;;3.60;2.10;;;;;;;6.04;56.24;99488.36;117419;1183;21864;-58
2022/02/07 07:31:10;;;;;;;7.80;2.70;;;;;;;6.11;56.19;99492.31;117370;1184;23423;-57
2022/02/07 07:33:42;;;;;;;7.90;3.00;;;;;;;6.18;55.98;99487.55;117362;1181;21854;-56
2022/02/07 07:36:10;;;;;;;5.80;2.60;;;;;;;6.22;55.95;99485.08;117307;1184;21854;-56
2022/02/07 07:38:38;;;;;;;6.20;2.80;;;;;;;6.25;55.80;99486.27;117341;1185;22979;-58
2022/02/07 07:41:06;;;;;;;7.40;2.70;;;;;;;6.27;55.97;99480.51;117364;1181;21852;-58
2022/02/07 07:43:36;;;;;;;7.70;2.90;;;;;;;6.28;55.87;99479.63;117396;1184;22595;-57
2022/02/07 07:46:08;;;;;;;7.00;2.70;;;;;;;6.28;55.36;99473.00;117346;1180;21860;-57
2022/02/07 07:48:40;;;;;;;5.40;2.60;;;;;;;6.28;55.44;99460.45;117452;1184;23433;-57
2022/02/07 07:51:22;;;;;;;5.20;2.80;;;;;;;6.29;55.80;99461.68;117400;1186;21853;-56
2022/02/07 08:02:17;;;;;;;19.90;12.60;;;;;;;6.47;55.74;99456.09;117365;1180;21859;-58
2022/02/07 08:04:47;;;;;;;5.60;2.80;;;;;;;6.54;55.80;99445.58;117382;1185;21854;-56
2022/02/07 08:07:30;;;;;;;5.70;2.70;;;;;;;6.62;55.52;99440.77;117430;1183;21851;-57
2022/02/07 08:12:32;;;;;;;7.70;2.80;;;;;;;6.97;55.70;99431.80;117331;1182;21845;-58
2022/02/07 08:15:08;;;;;;;4.10;2.50;;;;;;;7.19;55.79;99421.07;117344;1176;21851;-59
2022/02/07 08:17:36;;;;;;;5.80;3.00;;;;;;;7.33;55.68;99418.95;117441;1182;21855;-58
2022/02/07 08:20:05;;;;;;;6.20;2.80;;;;;;;7.43;55.66;99412.16;117395;1182;23534;-57
2022/02/07 08:22:34;;;;;;;5.30;3.10;;;;;;;7.52;55.73;99412.73;117528;1185;23550;-58
2022/02/07 08:25:03;;;;;;;5.00;2.70;;;;;;;7.58;55.01;99414.73;117368;1186;21896;-59
2022/02/07 08:27:31;;;;;;;5.80;2.60;;;;;;;7.64;55.23;99409.74;117358;1185;22931;-56
2022/02/07 08:30:00;;;;;;;5.50;3.10;;;;;;;7.73;55.35;99407.86;117424;1185;23104;-57
2022/02/07 08:32:28;;;;;;;5.50;2.80;;;;;;;7.84;55.44;99400.00;117455;1183;21845;-57
2022/02/07 08:35:00;;;;;;;6.40;3.00;;;;;;;8.00;55.46;99387.83;117377;1182;21859;-58
2022/02/07 08:37:30;;;;;;;5.50;3.10;;;;;;;8.20;55.49;99382.59;117340;1182;21853;-58
2022/02/07 08:39:58;;;;;;;5.00;2.30;;;;;;;8.38;55.53;99382.09;117463;1186;21864;-58
2022/02/07 08:42:26;;;;;;;6.60;3.00;;;;;;;8.55;55.50;99378.63;117386;1182;21922;-58
2022/02/07 08:44:55;;;;;;;5.50;2.60;;;;;;;8.73;55.35;99368.83;117385;1182;21976;-57
2022/02/07 08:47:23;;;;;;;5.40;2.70;;;;;;;8.86;55.14;99364.70;117377;1182;21854;-58
2022/02/07 08:49:52;;;;;;;4.60;2.50;;;;;;;8.97;55.14;99365.17;117356;1185;21865;-57
2022/02/07 08:52:20;;;;;;;3.60;1.80;;;;;;;9.09;55.21;99370.85;117332;1182;24153;-58
2022/02/07 08:54:49;;;;;;;5.00;2.10;;;;;;;9.22;55.30;99369.17;117332;1183;22621;-59
2022/02/07 08:57:36;;;;;;;4.40;2.30;;;;;;;9.32;55.38;99362.81;117306;1185;22320;-58
2022/02/07 09:00:14;;;;;;;3.70;2.20;;;;;;;9.42;55.29;99345.42;117309;1185;23456;-60
2022/02/07 09:03:16;;;;;;;6.10;2.80;;;;;;;9.51;55.13;99335.91;118373;1185;21857;-59
2022/02/07 09:06:08;;;;;;;5.20;2.70;;;;;;;9.58;55.11;99330.16;117348;1180;21852;-60
2022/02/07 09:11:11;;;;;;;6.60;2.80;;;;;;;9.63;54.45;99328.27;117381;1185;21896;-57
2022/02/07 09:13:43;;;;;;;5.20;2.70;;;;;;;9.64;54.55;99322.64;117371;1183;21855;-58
2022/02/07 09:18:44;;;;;;;6.00;2.90;;;;;;;9.82;54.69;99312.39;117409;1182;23540;-58
2022/02/07 09:21:12;;;;;;;;;;;;;;;9.92;54.02;99312.66;117438;1185;21843;-57
2022/02/07 09:23:41;;;;;;;6.30;3.60;;;;;;;10.00;54.32;99312.95;117410;1185;21837;-58
2022/02/07 09:26:09;;;;;;;5.60;3.40;;;;;;;10.11;53.66;99303.02;117450;1184;21851;-58
2022/02/07 09:28:37;;;;;;;9.60;3.70;;;;;;;10.21;53.83;99291.86;117330;1185;21860;-58
2022/02/07 09:31:06;;;;;;;6.50;3.10;;;;;;;10.28;53.97;99286.08;117362;1185;21986;-58
2022/02/07 09:33:34;;;;;;;6.80;3.60;;;;;;;10.34;53.43;99282.75;117344;1185;22983;-58
2022/02/07 09:36:03;;;;;;;7.40;3.60;;;;;;;10.36;53.06;99276.55;117438;1180;21884;-58
2022/02/07 09:38:32;;;;;;;8.20;4.50;;;;;;;10.35;53.20;99269.05;117340;1185;22992;-59
2022/02/07 09:41:06;;;;;;;5.40;3.40;;;;;;;10.37;53.58;99272.31;117448;1185;22875;-58
2022/02/07 09:43:42;;;;;;;7.30;4.10;;;;;;;10.44;53.67;99272.15;117362;1185;23454;-58
2022/02/07 09:46:17;;;;;;;7.60;4.20;;;;;;;10.53;53.80;99267.13;117360;1182;23102;-59
2022/02/07 09:48:45;;;;;;;7.50;4.00;;;;;;;10.67;53.97;99266.53;117377;1185;21855;-59
2022/02/07 09:51:14;;;;;;;7.00;4.30;;;;;;;10.77;53.48;99258.70;117406;1182;22912;-59
2022/02/07 09:53:42;;;;;;;10.10;4.50;;;;;;;10.86;53.80;99255.07;117433;1185;21854;-59
2022/02/07 09:56:11;;;;;;;7.50;4.10;;;;;;;10.96;53.78;99260.02;117453;1183;21857;-58
2022/02/07 09:58:40;;;;;;;9.80;4.10;;;;;;;11.08;54.00;99261.94;117392;1185;22908;-58
2022/02/07 10:01:13;;;;;;;6.90;4.00;;;;;;;11.20;53.69;99250.67;117394;1185;22898;-59
2022/02/07 10:04:09;;;;;;;7.10;4.30;;;;;;;11.30;53.77;99237.86;117247;1182;22807;-59
2022/02/07 10:09:48;;;;;;;;;;;;;;;11.45;53.63;99216.99;117084;1186;23413;-58
2022/02/07 10:15:37;;;;;;;8.70;4.70;;;;;;;11.23;53.20;99215.59;117399;1184;21820;-58
2022/02/07 10:18:38;;;;;;;8.90;4.90;;;;;;;11.11;53.09;99213.21;117303;1185;21854;-57
2022/02/07 10:21:42;;;;;;;8.70;5.30;;;;;;;11.12;53.37;99205.79;117368;1185;21854;-58
2022/02/07 10:41:43;;;;;;;9.00;5.20;;;;;;;11.79;53.55;99186.11;117340;1185;21858;-58
2022/02/07 10:47:11;;;;;;;8.20;4.60;;;;;;;11.98;53.76;99172.75;117386;1183;21851;-58
2022/02/07 10:50:01;;;;;;;7.70;5.00;;;;;;;12.03;53.91;99164.30;117391;1183;21854;-58
2022/02/07 10:52:48;;;;;;;9.60;5.00;;;;;;;12.09;53.90;99160.08;117370;1185;23679;-58
2022/02/07 10:55:30;;;;;;;10.00;5.40;;;;;;;12.18;53.74;99154.97;117825;1186;21901;-59
2022/02/07 10:58:00;;;;;;;9.90;4.80;;;;;;;12.26;53.96;99159.95;117367;1185;21888;-58
2022/02/07 11:00:37;;;;;;;8.00;5.60;;;;;;;12.34;53.80;99159.30;117336;1185;22083;-58
2022/02/07 11:03:10;;;;;;;6.50;4.70;;;;;;;12.39;53.94;99156.48;117370;1185;23490;-58
2022/02/07 11:11:18;;;;;;;8.20;5.20;;;;;;;12.49;53.58;99175.77;117052;1188;21871;-57
2022/02/07 11:14:00;;;;;;;8.60;5.40;;;;;;;12.52;53.86;99169.86;117442;1185;21864;-58
2022/02/07 11:20:00;;;;;;;10.20;5.40;;;;;;;12.66;54.03;99161.72;117384;1182;22623;-59
2022/02/07 11:22:43;;;;;;;10.00;5.00;;;;;;;12.80;54.25;99149.73;117238;1185;22897;-60
2022/02/07 11:25:43;;;;;;;9.20;5.80;;;;;;;12.94;54.25;99147.70;117381;1179;21940;-58
2022/02/07 11:28:14;;;;;;;6.20;4.70;;;;;;;13.09;54.20;99146.57;117322;1179;21854;-59
2022/02/07 11:30:47;;;;;;;7.90;5.20;;;;;;;13.14;53.99;99143.55;117397;1184;21898;-58
2022/02/07 11:33:30;;;;;;;9.20;5.60;;;;;;;13.12;53.82;99138.18;117343;1185;22046;-59
2022/02/07 11:35:59;;;;;;;7.60;4.90;;;;;;;12.98;53.63;99133.30;117352;1185;24156;-59
2022/02/07 11:38:27;;;;;;;7.60;5.00;;;;;;;12.81;52.99;99129.63;117450;1185;23082;-58
2022/02/07 11:41:00;;;;;;;6.10;4.10;;;;;;;12.60;52.96;99126.78;117357;1185;21843;-59
2022/02/07 11:43:33;;;;;;;7.60;4.60;;;;;;;12.43;53.12;99124.45;117460;1185;21899;-58
2022/02/07 11:46:08;;;;;;;6.50;4.00;;;;;;;12.31;53.46;99121.24;117742;1185;21989;-60
2022/02/07 11:48:43;;;;;;;6.20;4.10;;;;;;;12.29;53.50;99121.30;117403;1185;21875;-60
2022/02/07 11:51:28;;;;;;;6.90;4.20;;;;;;;12.39;53.71;99123.54;117410;1182;23538;-58
2022/02/07 11:53:59;;;;;;;7.10;4.60;;;;;;;12.58;53.97;99125.27;117427;1182;21857;-58
2022/02/07 11:56:47;;;;;;;;;;;;;;;12.74;53.96;99119.66;117394;1185;24114;-58
2022/02/07 11:59:39;;;;;;;8.30;5.40;;;;;;;12.95;53.97;99113.89;117347;1185;21858;-58
2022/02/07 12:02:17;;;;;;;6.00;3.90;;;;;;;13.14;53.95;99100.07;117997;1185;22957;-58
2022/02/07 12:04:48;;;;;;;8.60;5.20;;;;;;;13.27;53.89;99094.39;117335;1185;23538;-58
2022/02/07 12:07:27;;;;;;;7.80;4.40;;;;;;;13.37;53.77;99089.54;117427;1185;21862;-60
2022/02/07 12:10:15;;;;;;;8.90;5.30;;;;;;;13.43;53.59;99085.30;117251;1183;22909;-59
2022/02/07 12:12:48;;;;;;;12.80;5.10;;;;;;;13.45;53.59;99078.66;117149;1185;22024;-58
2022/02/07 12:15:38;;;;;;;10.00;5.60;;;;;;;13.55;53.52;99072.56;118094;1185;21859;-57
2022/02/07 12:18:12;;;;;;;15.30;7.30;;;;;;;13.65;53.71;99073.88;117348;1185;21854;-58
2022/02/07 12:20:43;;;;;;;8.20;5.40;;;;;;;13.71;53.59;99074.33;117353;1185;23519;-59
2022/02/07 12:23:11;;;;;;;;;;;;;;;13.75;53.28;99080.30;117364;1183;21868;-59
2022/02/07 12:25:55;;;;;;;8.90;5.10;;;;;;;13.77;53.61;99079.17;117350;1185;21847;-59
2022/02/07 12:31:04;;;;;;;12.30;6.00;;;;;;;13.76;53.33;99074.23;117331;1185;22085;-58
2022/02/07 12:33:32;;;;;;;9.80;5.30;;;;;;;13.73;53.20;99069.46;117348;1185;21957;-59
2022/02/07 12:36:01;;;;;;;14.10;5.60;;;;;;;13.64;52.56;99064.96;117339;1184;21962;-59
2022/02/07 12:38:30;;;;;;;7.50;4.90;;;;;;;13.55;52.82;99067.13;117411;1186;23563;-59
2022/02/07 12:40:59;;;;;;;9.60;4.70;;;;;;;13.49;52.67;99071.23;117482;1185;21826;-58
2022/02/07 12:43:28;;;;;;;7.30;4.80;;;;;;;13.38;52.33;99061.48;117377;1182;21857;-58
2022/02/07 12:45:56;;;;;;;8.60;5.20;;;;;;;13.30;52.75;99058.16;117252;1185;21858;-56
2022/02/07 12:48:29;;;;;;;8.20;5.00;;;;;;;13.25;52.80;99063.12;117281;1185;21858;-59
2022/02/07 12:50:57;;;;;;;8.20;5.40;;;;;;;13.18;52.57;99069.39;117338;1185;23462;-58
2022/02/07 12:53:28;;;;;;;18.10;5.70;;;;;;;13.11;52.51;99069.20;117362;1185;21999;-57
2022/02/07 12:55:57;;;;;;;;;;;;;;;13.00;52.39;99069.67;117449;1185;23626;-59
2022/02/07 12:58:38;;;;;;;8.70;5.40;;;;;;;12.89;52.57;99070.29;117367;1185;21865;-59
2022/02/07 13:01:23;;;;;;;8.10;5.20;;;;;;;12.81;52.52;99075.77;117723;1185;23659;-59
2022/02/07 13:04:04;;;;;;;9.20;5.50;;;;;;;12.66;52.58;99073.73;117230;1185;23430;-58
2022/02/07 13:06:35;;;;;;;8.90;5.00;;;;;;;12.54;52.57;99071.59;117354;1186;21851;-60
2022/02/07 13:09:24;;;;;;;7.90;4.50;;;;;;;12.39;52.45;99072.02;117392;1184;22647;-58
2022/02/07 13:12:13;;;;;;;6.70;5.00;;;;;;;12.26;52.47;99077.11;117344;1186;21870;-58
2022/02/07 13:14:51;;;;;;;8.30;5.20;;;;;;;12.13;52.54;99081.65;117325;1185;23654;-58
2022/02/07 13:17:22;;;;;;;9.60;6.30;;;;;;;11.98;51.85;99086.27;117241;1185;22652;-59
2022/02/07 13:19:52;;;;;;;7.90;5.50;;;;;;;11.84;52.05;99083.62;117390;1185;21865;-59
2022/02/07 13:22:22;;;;;;;10.00;5.90;;;;;;;11.71;52.31;99077.77;117414;1185;23535;-60
2022/02/07 13:24:51;;;;;;;;;;;;;;;11.61;52.26;99070.97;117414;1185;21826;-60
2022/02/07 13:27:19;;;;;;;8.60;5.80;;;;;;;11.49;51.95;99073.68;117604;1185;23458;-60
2022/02/07 13:29:51;;;;;;;11.60;6.00;;;;;;;11.38;52.27;99080.60;117375;1182;21857;-58
2022/02/07 13:32:23;;;;;;;11.70;7.30;;;;;;;11.29;52.30;99077.23;117385;1185;23478;-59
2022/02/07 13:35:01;;;;;;;8.50;5.70;;;;;;;11.22;52.42;99081.15;117392;1185;21845;-59
2022/02/07 13:37:31;;;;;;;9.00;5.80;;;;;;;11.13;52.46;99079.17;117385;1185;21893;-59
2022/02/07 13:40:01;;;;;;;9.00;5.90;;;;;;;11.06;52.34;99080.48;117069;1186;21865;-58
2022/02/07 13:42:31;;;;;;;8.10;6.00;;;;;;;10.98;52.47;99075.50;117431;1185;22902;-59
2022/02/07 13:45:06;;;;;;;10.00;6.30;;;;;;;10.90;52.37;99075.41;117347;1185;22654;-58
2022/02/07 13:47:44;;;;;;;7.50;5.20;;;;;;;10.83;52.52;99074.08;117330;1186;22125;-59
2022/02/07 13:50:13;;;;;;;21.00;13.30;;;;;;;10.76;52.50;99065.55;117382;1185;24131;-58
2022/02/07 13:52:43;;;;;;;;;;;;;;;10.70;52.53;99069.45;117387;1185;21837;-58
2022/02/07 13:55:15;;;;;;;9.50;5.60;;;;;;;10.65;52.61;99066.10;117323;1182;21862;-58
2022/02/07 13:58:05;;;;;;;8.60;5.30;;;;;;;10.60;52.53;99067.81;117325;1185;21859;-59
2022/02/07 14:00:40;;;;;;;11.70;6.70;;;;;;;10.51;52.80;99065.49;117404;1185;23535;-58
2022/02/07 14:03:13;;;;;;;9.60;6.80;;;;;;;10.43;52.71;99064.36;117379;1182;21877;-57
2022/02/07 14:05:45;;;;;;;948.40;630.60;;;;;;;10.37;52.84;99066.45;117365;1185;23432;-58
2022/02/07 14:08:13;;;;;;;109.80;66.60;;;;;;;10.39;52.84;99069.02;117398;1185;23631;-58